Time;durP1;ratioP1;P1;durP2;ratioP2;P2;SDS_P1;SDS_P2;PMS_P1;PMS_P2;Temp;Humidity;BMP_temperature;BMP_pressure;BME280_temperature;BME280_humidity;BME280_pressure;Samples;Min_cycle;Max_cycle;Signal;HPM_P1;HPM_P2
2023/12/14 00:01:43;;;;;;;3.88;3.47;;;;;;;;;;4955906;29;20496;-70
2023/12/14 00:04:09;;;;;;;4.20;3.65;;;;;;;;;;4956105;29;20031;-70
2023/12/14 00:06:34;;;;;;;4.20;3.70;;;;;;;;;;4955670;29;20075;-69
2023/12/14 00:09:00;;;;;;;5.13;3.63;;;;;;;;;;4938721;29;20027;-67
2023/12/14 00:11:25;;;;;;;3.90;3.50;;;;;;;;;;4955800;29;20027;-70
2023/12/14 00:13:51;;;;;;;4.35;3.42;;;;;;;;;;4955356;29;20030;-70
2023/12/14 00:16:16;;;;;;;6.80;3.72;;;;;;;;;;4954946;29;20031;-71
2023/12/14 00:18:42;;;;;;;3.80;3.40;;;;;;;;;;4954976;29;20077;-72
2023/12/14 00:21:07;;;;;;;7.85;3.60;;;;;;;;;;4955006;29;20369;-70
2023/12/14 00:23:36;;;;;;;6.25;3.30;;;;;;;;;;4955745;29;20007;-70
2023/12/14 00:26:01;;;;;;;4.45;3.72;;;;;;;;;;4954663;28;20074;-70
2023/12/14 00:28:27;;;;;;;4.32;3.55;;;;;;;;;;4954003;29;20118;-70
2023/12/14 00:30:52;;;;;;;4.18;3.65;;;;;;;;;;4954414;29;20023;-70
2023/12/14 00:33:18;;;;;;;5.75;3.60;;;;;;;;;;4954430;29;20031;-70
2023/12/14 00:35:43;;;;;;;5.35;3.13;;;;;;;;;;4954387;29;20027;-70
2023/12/14 00:38:09;;;;;;;3.95;3.40;;;;;;;;;;4954922;29;20054;-70
2023/12/14 00:40:34;;;;;;;4.43;3.33;;;;;;;;;;4955289;29;20358;-70
2023/12/14 00:43:00;;;;;;;4.20;3.70;;;;;;;;;;4954320;28;20047;-68
2023/12/14 00:45:25;;;;;;;5.45;3.30;;;;;;;;;;4963794;28;20435;-70
2023/12/14 00:47:51;;;;;;;3.72;3.25;;;;;;;;;;4963486;28;20472;-68
2023/12/14 00:50:16;;;;;;;4.57;3.38;;;;;;;;;;4963244;28;20596;-68
2023/12/14 00:52:42;;;;;;;4.00;3.38;;;;;;;;;;4963743;28;20057;-69
2023/12/14 00:55:07;;;;;;;4.43;3.47;;;;;;;;;;4961277;28;20070;-68
2023/12/14 00:57:33;;;;;;;3.70;3.30;;;;;;;;;;4961901;28;20096;-69
2023/12/14 00:59:58;;;;;;;9.88;3.45;;;;;;;;;;4964630;28;20038;-69
2023/12/14 01:02:24;;;;;;;3.75;3.00;;;;;;;;;;4962673;28;20618;-68
2023/12/14 01:04:49;;;;;;;4.47;3.45;;;;;;;;;;4961731;28;20094;-68
2023/12/14 01:07:15;;;;;;;6.68;3.47;;;;;;;;;;4962738;28;20022;-71
2023/12/14 01:09:41;;;;;;;4.47;3.20;;;;;;;;;;4962089;28;20035;-68
2023/12/14 01:12:06;;;;;;;4.95;3.30;;;;;;;;;;4963054;28;20046;-71
2023/12/14 01:14:32;;;;;;;3.55;2.97;;;;;;;;;;4961137;28;20031;-71
2023/12/14 01:16:57;;;;;;;5.78;3.88;;;;;;;;;;4962789;28;20027;-71
2023/12/14 01:19:25;;;;;;;4.30;3.22;;;;;;;;;;4968033;28;20022;-69
2023/12/14 01:21:50;;;;;;;4.30;3.30;;;;;;;;;;4973680;28;20042;-69
2023/12/14 01:24:16;;;;;;;3.78;3.40;;;;;;;;;;4974163;28;20022;-70
2023/12/14 01:26:41;;;;;;;5.75;3.38;;;;;;;;;;4972426;28;20579;-70
2023/12/14 01:29:07;;;;;;;3.50;3.17;;;;;;;;;;4973563;28;20031;-69
2023/12/14 01:31:32;;;;;;;5.03;2.92;;;;;;;;;;4973710;28;20023;-70
2023/12/14 01:33:58;;;;;;;4.55;3.10;;;;;;;;;;4973920;28;20035;-70
2023/12/14 01:36:25;;;;;;;4.88;3.20;;;;;;;;;;4973193;28;20026;-71
2023/12/14 01:38:51;;;;;;;3.63;3.03;;;;;;;;;;4973761;28;20015;-69
2023/12/14 01:41:17;;;;;;;5.15;3.17;;;;;;;;;;4973690;28;20109;-70
2023/12/14 01:43:43;;;;;;;3.78;3.40;;;;;;;;;;4973669;28;20158;-71
2023/12/14 01:46:09;;;;;;;3.70;3.40;;;;;;;;;;4973916;28;20423;-70
2023/12/14 01:48:35;;;;;;;3.65;3.35;;;;;;;;;;4973554;28;20023;-70
2023/12/14 01:51:00;;;;;;;3.50;3.13;;;;;;;;;;4973868;28;20125;-70
2023/12/14 01:53:26;;;;;;;4.72;2.90;;;;;;;;;;4973527;28;20027;-71
2023/12/14 01:55:52;;;;;;;5.07;3.00;;;;;;;;;;4973757;28;20023;-71
2023/12/14 01:58:18;;;;;;;3.40;2.95;;;;;;;;;;4973574;28;20449;-71
2023/12/14 02:00:52;;;;;;;4.72;2.97;;;;;;;;;;4973685;28;20037;-71
2023/12/14 02:03:18;;;;;;;3.78;2.83;;;;;;;;;;4973478;28;20126;-72
2023/12/14 02:05:44;;;;;;;3.92;2.95;;;;;;;;;;4956501;28;20102;-72
2023/12/14 02:08:09;;;;;;;3.10;2.80;;;;;;;;;;4973365;28;20030;-71
2023/12/14 02:10:35;;;;;;;3.90;3.10;;;;;;;;;;4973450;28;20381;-70
2023/12/14 02:13:03;;;;;;;4.78;3.22;;;;;;;;;;4973467;28;20042;-72
2023/12/14 02:15:29;;;;;;;3.42;3.13;;;;;;;;;;4973327;28;20030;-71
2023/12/14 02:17:55;;;;;;;3.03;2.75;;;;;;;;;;4973625;28;20036;-71
2023/12/14 02:20:20;;;;;;;3.63;3.25;;;;;;;;;;4973310;28;20480;-69
2023/12/14 02:22:55;;;;;;;3.38;2.85;;;;;;;;;;4973392;28;20031;-69
2023/12/14 02:25:22;;;;;;;3.53;2.92;;;;;;;;;;4973288;28;20035;-69
2023/12/14 02:27:49;;;;;;;3.28;2.97;;;;;;;;;;4973152;28;20055;-70
2023/12/14 02:30:14;;;;;;;3.63;2.90;;;;;;;;;;4973322;28;20030;-72
2023/12/14 02:32:41;;;;;;;4.05;2.83;;;;;;;;;;4973210;28;20154;-72
2023/12/14 02:35:08;;;;;;;3.20;2.90;;;;;;;;;;4973099;28;20110;-71
2023/12/14 02:37:34;;;;;;;4.72;2.90;;;;;;;;;;4973651;28;20030;-71
2023/12/14 02:40:03;;;;;;;4.88;3.20;;;;;;;;;;4973111;28;20027;-71
2023/12/14 02:42:29;;;;;;;4.73;3.00;;;;;;;;;;4973157;28;20105;-71
2023/12/14 02:44:54;;;;;;;3.38;3.00;;;;;;;;;;4973353;28;20106;-71
2023/12/14 02:47:20;;;;;;;3.20;2.90;;;;;;;;;;4973093;28;20467;-71
2023/12/14 02:49:46;;;;;;;3.53;3.15;;;;;;;;;;4975149;28;20054;-70
2023/12/14 02:52:11;;;;;;;3.72;2.78;;;;;;;;;;4976472;28;20061;-71
2023/12/14 02:54:38;;;;;;;4.30;3.10;;;;;;;;;;4976437;28;20042;-70
2023/12/14 02:57:04;;;;;;;3.15;2.85;;;;;;;;;;4976754;28;20030;-71
2023/12/14 02:59:30;;;;;;;4.10;2.92;;;;;;;;;;4976328;28;20034;-70
2023/12/14 03:01:55;;;;;;;3.17;2.88;;;;;;;;;;4958983;28;20023;-70
2023/12/14 03:04:21;;;;;;;5.50;2.97;;;;;;;;;;4976550;28;20102;-71
2023/12/14 03:06:46;;;;;;;7.70;3.00;;;;;;;;;;4976243;28;20118;-71
2023/12/14 03:09:12;;;;;;;5.15;3.25;;;;;;;;;;4976538;28;20022;-70
2023/12/14 03:11:38;;;;;;;3.92;3.53;;;;;;;;;;4976134;28;20117;-71
2023/12/14 03:14:03;;;;;;;4.25;3.00;;;;;;;;;;4976091;28;20069;-70
2023/12/14 03:16:29;;;;;;;5.68;2.78;;;;;;;;;;4976402;28;20039;-71
2023/12/14 03:18:56;;;;;;;3.20;2.90;;;;;;;;;;4976255;28;20066;-71
2023/12/14 03:21:22;;;;;;;6.40;3.03;;;;;;;;;;4966813;28;20102;-70
2023/12/14 03:23:48;;;;;;;3.30;3.00;;;;;;;;;;4946810;28;20114;-70
2023/12/14 03:26:13;;;;;;;3.35;2.65;;;;;;;;;;4965294;28;20030;-71
2023/12/14 03:28:39;;;;;;;3.17;2.88;;;;;;;;;;4964712;28;20062;-69
2023/12/14 03:31:05;;;;;;;3.08;2.75;;;;;;;;;;4964514;28;20033;-70
2023/12/14 03:33:30;;;;;;;2.92;2.53;;;;;;;;;;4964780;28;20098;-69
2023/12/14 03:35:56;;;;;;;3.42;2.70;;;;;;;;;;4964466;28;20019;-72
2023/12/14 03:38:22;;;;;;;3.28;2.63;;;;;;;;;;4964653;28;20066;-70
2023/12/14 03:40:47;;;;;;;4.53;2.90;;;;;;;;;;4964115;28;20280;-71
2023/12/14 03:43:13;;;;;;;3.22;2.80;;;;;;;;;;4963490;28;20089;-70
2023/12/14 03:45:38;;;;;;;4.60;2.92;;;;;;;;;;4964429;28;20030;-71
2023/12/14 03:48:04;;;;;;;4.85;2.90;;;;;;;;;;4964367;28;20550;-71
2023/12/14 03:50:30;;;;;;;2.80;2.53;;;;;;;;;;4963167;28;20488;-70
2023/12/14 03:52:55;;;;;;;3.08;2.80;;;;;;;;;;4946856;28;20030;-70
2023/12/14 03:55:21;;;;;;;2.88;2.67;;;;;;;;;;4964284;28;20066;-71
2023/12/14 03:57:46;;;;;;;2.80;2.47;;;;;;;;;;4963273;28;20023;-70
2023/12/14 04:00:13;;;;;;;3.90;2.90;;;;;;;;;;4963726;28;20028;-70
2023/12/14 04:02:41;;;;;;;2.80;2.60;;;;;;;;;;4964782;28;20035;-70
2023/12/14 04:05:10;;;;;;;3.20;2.90;;;;;;;;;;4966707;28;20023;-69
2023/12/14 04:07:40;;;;;;;3.20;2.90;;;;;;;;;;4974797;28;20031;-70
2023/12/14 04:10:12;;;;;;;3.10;2.80;;;;;;;;;;4974148;28;20038;-70
2023/12/14 04:12:38;;;;;;;3.45;2.60;;;;;;;;;;4974613;28;20495;-70
2023/12/14 04:15:05;;;;;;;2.95;2.65;;;;;;;;;;4974976;28;20177;-69
2023/12/14 04:17:31;;;;;;;4.30;2.90;;;;;;;;;;4973507;28;20105;-70
2023/12/14 04:19:57;;;;;;;3.53;2.47;;;;;;;;;;4974510;28;20105;-70
2023/12/14 04:22:23;;;;;;;3.20;2.90;;;;;;;;;;4974773;28;20051;-70
2023/12/14 04:24:50;;;;;;;3.55;2.97;;;;;;;;;;4974850;28;20383;-69
2023/12/14 04:27:15;;;;;;;3.03;2.72;;;;;;;;;;4974697;28;20097;-69
2023/12/14 04:29:41;;;;;;;2.92;2.65;;;;;;;;;;4974671;28;20027;-70
2023/12/14 04:32:07;;;;;;;3.35;2.45;;;;;;;;;;4974679;28;20113;-70
2023/12/14 04:34:33;;;;;;;2.67;2.47;;;;;;;;;;4974824;28;20031;-69
2023/12/14 04:36:58;;;;;;;2.70;2.50;;;;;;;;;;4974622;28;20058;-70
2023/12/14 04:39:25;;;;;;;3.25;2.85;;;;;;;;;;4974534;28;20126;-70
2023/12/14 04:41:52;;;;;;;4.60;2.72;;;;;;;;;;4974801;28;20150;-70
2023/12/14 04:44:17;;;;;;;4.75;2.85;;;;;;;;;;4974721;28;20039;-69
2023/12/14 04:46:43;;;;;;;2.78;2.58;;;;;;;;;;4974434;28;20530;-69
2023/12/14 04:49:09;;;;;;;3.33;2.72;;;;;;;;;;4974444;28;20023;-70
2023/12/14 04:51:34;;;;;;;2.95;2.53;;;;;;;;;;4974270;28;20030;-70
2023/12/14 04:54:00;;;;;;;3.25;2.95;;;;;;;;;;4974229;28;20082;-71
2023/12/14 04:56:25;;;;;;;4.47;2.90;;;;;;;;;;4974278;28;20053;-70
2023/12/14 04:58:51;;;;;;;3.30;2.80;;;;;;;;;;4974410;28;20022;-70
2023/12/14 05:01:16;;;;;;;3.10;2.80;;;;;;;;;;4974218;28;20029;-70
2023/12/14 05:03:42;;;;;;;2.95;2.67;;;;;;;;;;4974434;28;20109;-70
2023/12/14 05:06:08;;;;;;;3.13;2.70;;;;;;;;;;4974383;28;20045;-70
2023/12/14 05:08:33;;;;;;;3.88;2.70;;;;;;;;;;4974079;28;20507;-70
2023/12/14 05:10:59;;;;;;;3.67;2.90;;;;;;;;;;4973678;28;20058;-70
2023/12/14 05:13:25;;;;;;;3.40;3.10;;;;;;;;;;4973737;28;20242;-70
2023/12/14 05:15:51;;;;;;;3.40;3.00;;;;;;;;;;4974224;28;20109;-70
2023/12/14 05:18:17;;;;;;;2.53;2.33;;;;;;;;;;4974281;28;20019;-69
2023/12/14 05:20:45;;;;;;;3.13;2.70;;;;;;;;;;4974006;28;20292;-69
2023/12/14 05:23:11;;;;;;;3.00;2.70;;;;;;;;;;4973905;28;20038;-70
2023/12/14 05:25:36;;;;;;;3.10;2.80;;;;;;;;;;4973877;28;20023;-70
2023/12/14 05:28:02;;;;;;;2.97;2.70;;;;;;;;;;4973659;28;20043;-70
2023/12/14 05:30:28;;;;;;;4.45;3.00;;;;;;;;;;4974017;28;20034;-70
2023/12/14 05:32:54;;;;;;;2.88;2.58;;;;;;;;;;4973753;28;20042;-70
2023/12/14 05:35:19;;;;;;;3.30;2.90;;;;;;;;;;4973653;28;20043;-70
2023/12/14 05:37:45;;;;;;;2.92;2.70;;;;;;;;;;4973967;28;20037;-70
2023/12/14 05:40:11;;;;;;;3.00;2.70;;;;;;;;;;4974007;28;20411;-70
2023/12/14 05:42:37;;;;;;;3.42;2.83;;;;;;;;;;4973807;28;20484;-70
2023/12/14 05:45:04;;;;;;;3.30;3.00;;;;;;;;;;4973915;28;20035;-70
2023/12/14 05:47:31;;;;;;;3.00;2.50;;;;;;;;;;4973853;28;20030;-70
2023/12/14 05:49:57;;;;;;;3.50;3.20;;;;;;;;;;4973545;28;20472;-70
2023/12/14 05:52:23;;;;;;;2.75;2.50;;;;;;;;;;4973648;28;20045;-70
2023/12/14 05:54:48;;;;;;;2.70;2.50;;;;;;;;;;4973713;28;20030;-70
2023/12/14 05:57:14;;;;;;;2.72;2.53;;;;;;;;;;4973577;28;20027;-70
2023/12/14 05:59:39;;;;;;;2.90;2.60;;;;;;;;;;4973470;28;20019;-70
2023/12/14 06:02:06;;;;;;;2.60;2.40;;;;;;;;;;4973485;28;20102;-70
2023/12/14 06:04:32;;;;;;;2.75;2.55;;;;;;;;;;4973713;28;20026;-70
2023/12/14 06:06:58;;;;;;;2.88;2.65;;;;;;;;;;4973683;28;20165;-70
2023/12/14 06:09:33;;;;;;;3.03;2.72;;;;;;;;;;4973470;28;20027;-70
2023/12/14 06:12:03;;;;;;;4.85;2.90;;;;;;;;;;4973740;28;20034;-70
2023/12/14 06:14:28;;;;;;;3.47;2.67;;;;;;;;;;4973533;28;20042;-70
2023/12/14 06:16:54;;;;;;;3.35;2.72;;;;;;;;;;4973432;28;20272;-70
2023/12/14 06:19:20;;;;;;;3.13;2.83;;;;;;;;;;4976024;28;20026;-70
2023/12/14 06:21:45;;;;;;;2.85;2.65;;;;;;;;;;4973772;28;20035;-70
2023/12/14 06:24:11;;;;;;;2.70;2.50;;;;;;;;;;4976606;28;20373;-70
2023/12/14 06:26:43;;;;;;;3.05;2.75;;;;;;;;;;4977643;28;20074;-70
2023/12/14 06:29:09;;;;;;;3.03;2.72;;;;;;;;;;4977030;28;20027;-70
2023/12/14 06:31:35;;;;;;;2.97;2.67;;;;;;;;;;4977024;28;20472;-70
2023/12/14 06:34:03;;;;;;;2.78;2.58;;;;;;;;;;4976801;28;20085;-70
2023/12/14 06:36:30;;;;;;;3.20;2.80;;;;;;;;;;4976791;28;20538;-70
2023/12/14 06:38:56;;;;;;;3.20;2.90;;;;;;;;;;4976755;28;20479;-70
2023/12/14 06:41:22;;;;;;;3.30;2.80;;;;;;;;;;4976708;28;20031;-70
2023/12/14 06:43:51;;;;;;;2.80;2.40;;;;;;;;;;4977259;28;20035;-70
2023/12/14 06:46:17;;;;;;;3.03;2.78;;;;;;;;;;4976760;28;20152;-70
2023/12/14 06:48:43;;;;;;;3.67;2.95;;;;;;;;;;4976670;28;20186;-70
2023/12/14 06:51:09;;;;;;;2.75;2.55;;;;;;;;;;4976559;28;20105;-70
2023/12/14 06:53:37;;;;;;;3.47;2.75;;;;;;;;;;4976717;28;20038;-70
2023/12/14 06:56:03;;;;;;;3.30;3.00;;;;;;;;;;4976757;28;20026;-70
2023/12/14 06:58:29;;;;;;;2.85;2.65;;;;;;;;;;4976507;28;20050;-71
2023/12/14 07:00:54;;;;;;;3.20;2.90;;;;;;;;;;4976664;28;20125;-71
2023/12/14 07:03:20;;;;;;;3.42;2.90;;;;;;;;;;4976297;28;20023;-71
2023/12/14 07:05:45;;;;;;;3.20;2.90;;;;;;;;;;4976600;28;20042;-71
2023/12/14 07:08:11;;;;;;;3.28;2.97;;;;;;;;;;4976292;28;20038;-72
2023/12/14 07:10:36;;;;;;;3.35;2.88;;;;;;;;;;4974678;28;20106;-71
2023/12/14 07:13:02;;;;;;;3.20;2.90;;;;;;;;;;4959771;28;20381;-72
2023/12/14 07:15:27;;;;;;;3.30;3.00;;;;;;;;;;4956775;29;20046;-71
2023/12/14 07:17:53;;;;;;;3.15;2.80;;;;;;;;;;4956871;29;20031;-71
2023/12/14 07:20:19;;;;;;;3.20;2.90;;;;;;;;;;4956809;29;20038;-71
2023/12/14 07:22:44;;;;;;;3.05;2.83;;;;;;;;;;4956694;29;20028;-71
2023/12/14 07:25:10;;;;;;;3.92;3.13;;;;;;;;;;4956551;29;20020;-70
2023/12/14 07:27:35;;;;;;;4.13;3.20;;;;;;;;;;4956453;29;20425;-70
2023/12/14 07:30:01;;;;;;;3.10;2.80;;;;;;;;;;4956863;29;20042;-70
2023/12/14 07:32:27;;;;;;;3.40;3.08;;;;;;;;;;4956571;29;20058;-70
2023/12/14 07:34:52;;;;;;;3.67;2.90;;;;;;;;;;4955818;28;20038;-70
2023/12/14 07:37:18;;;;;;;3.28;2.83;;;;;;;;;;4956436;29;20476;-70
2023/12/14 07:39:44;;;;;;;2.88;2.58;;;;;;;;;;4956372;29;20504;-70
2023/12/14 07:42:09;;;;;;;3.05;2.60;;;;;;;;;;4956898;29;20023;-70
2023/12/14 07:44:35;;;;;;;2.95;2.75;;;;;;;;;;4956305;29;20472;-70
2023/12/14 07:47:01;;;;;;;2.78;2.50;;;;;;;;;;4956697;29;20032;-70
2023/12/14 07:49:26;;;;;;;3.00;2.72;;;;;;;;;;4956441;29;20086;-70
2023/12/14 07:51:52;;;;;;;3.53;3.22;;;;;;;;;;4956412;29;20028;-70
2023/12/14 07:54:18;;;;;;;3.30;3.00;;;;;;;;;;4954694;28;20488;-70
2023/12/14 07:56:44;;;;;;;4.03;3.05;;;;;;;;;;4973083;28;20031;-72
2023/12/14 07:59:10;;;;;;;3.55;3.10;;;;;;;;;;4970062;28;20435;-71
2023/12/14 08:01:36;;;;;;;3.40;3.10;;;;;;;;;;4959099;28;20033;-72
2023/12/14 08:04:02;;;;;;;3.75;3.05;;;;;;;;;;4956400;29;20098;-72
2023/12/14 08:06:28;;;;;;;3.55;2.90;;;;;;;;;;4956660;29;20483;-71
2023/12/14 08:08:55;;;;;;;4.00;3.00;;;;;;;;;;4956910;29;20031;-71
2023/12/14 08:11:20;;;;;;;3.38;3.08;;;;;;;;;;4939324;29;20381;-71
2023/12/14 08:13:47;;;;;;;3.92;3.63;;;;;;;;;;4957252;29;20034;-71
2023/12/14 08:16:13;;;;;;;4.43;3.22;;;;;;;;;;4956645;28;20027;-70
2023/12/14 08:18:38;;;;;;;3.20;2.90;;;;;;;;;;4963930;28;20042;-70
2023/12/14 08:21:04;;;;;;;5.47;3.17;;;;;;;;;;4959201;28;20472;-70
2023/12/14 08:23:30;;;;;;;3.22;2.90;;;;;;;;;;4958244;28;20373;-71
2023/12/14 08:25:59;;;;;;;4.65;3.08;;;;;;;;;;4961699;28;20094;-70
2023/12/14 08:28:25;;;;;;;6.05;2.83;;;;;;;;;;4965145;28;20035;-70
2023/12/14 08:30:51;;;;;;;3.08;2.78;;;;;;;;;;4957911;28;20027;-70
2023/12/14 08:33:17;;;;;;;3.28;2.97;;;;;;;;;;4973309;28;20057;-71
2023/12/14 08:35:43;;;;;;;7.93;3.10;;;;;;;;;;4974135;28;20475;-70
2023/12/14 08:38:10;;;;;;;3.33;2.78;;;;;;;;;;4972987;28;20050;-71
2023/12/14 08:40:36;;;;;;;3.10;2.85;;;;;;;;;;4973006;28;20113;-70
2023/12/14 08:43:02;;;;;;;3.50;2.85;;;;;;;;;;4973245;28;20114;-70
2023/12/14 08:45:28;;;;;;;4.85;2.83;;;;;;;;;;4955542;28;20042;-72
2023/12/14 08:47:54;;;;;;;3.05;2.75;;;;;;;;;;4973092;28;20133;-72
2023/12/14 08:50:19;;;;;;;4.47;3.10;;;;;;;;;;4972841;28;20035;-71
2023/12/14 08:52:45;;;;;;;3.28;2.92;;;;;;;;;;4973240;28;20039;-71
2023/12/14 08:55:11;;;;;;;4.25;3.13;;;;;;;;;;4972525;28;20035;-72
2023/12/14 08:57:36;;;;;;;3.97;2.60;;;;;;;;;;4972779;28;20076;-67
2023/12/14 09:00:04;;;;;;;4.28;3.08;;;;;;;;;;4973741;28;20027;-73
2023/12/14 09:02:30;;;;;;;3.67;2.83;;;;;;;;;;4973117;28;20043;-71
2023/12/14 09:04:55;;;;;;;3.03;2.72;;;;;;;;;;4972517;28;20080;-70
2023/12/14 09:07:21;;;;;;;3.72;3.10;;;;;;;;;;4972981;28;20030;-71
2023/12/14 09:09:46;;;;;;;3.00;2.70;;;;;;;;;;4972293;28;20035;-66
2023/12/14 09:12:12;;;;;;;3.13;2.83;;;;;;;;;;4967342;28;20031;-66
2023/12/14 09:14:37;;;;;;;3.65;2.60;;;;;;;;;;4954586;28;20043;-66
2023/12/14 09:17:04;;;;;;;3.30;2.72;;;;;;;;;;4953186;29;20027;-67
2023/12/14 09:19:32;;;;;;;7.10;2.95;;;;;;;;;;4953196;29;20047;-66
2023/12/14 09:21:58;;;;;;;8.82;2.80;;;;;;;;;;4947061;28;20483;-67
2023/12/14 09:24:23;;;;;;;3.08;2.78;;;;;;;;;;4972517;28;20037;-67
2023/12/14 09:26:49;;;;;;;3.90;2.75;;;;;;;;;;4972151;28;20443;-67
2023/12/14 09:29:16;;;;;;;4.82;2.90;;;;;;;;;;4957218;28;20047;-69
2023/12/14 09:31:42;;;;;;;5.38;2.90;;;;;;;;;;4933885;29;20028;-68
2023/12/14 09:34:08;;;;;;;5.10;2.85;;;;;;;;;;4942397;29;20423;-68
2023/12/14 09:36:34;;;;;;;3.78;3.08;;;;;;;;;;4938960;28;20031;-66
2023/12/14 09:38:59;;;;;;;3.70;2.90;;;;;;;;;;4967790;28;20357;-68
2023/12/14 09:41:25;;;;;;;4.00;3.40;;;;;;;;;;4956200;28;20115;-66
2023/12/14 09:43:52;;;;;;;2.95;2.60;;;;;;;;;;4952925;29;20102;-67
2023/12/14 09:46:19;;;;;;;3.15;2.75;;;;;;;;;;4954576;28;20039;-66
2023/12/14 09:48:46;;;;;;;3.97;2.70;;;;;;;;;;4953033;28;20067;-66
2023/12/14 09:51:12;;;;;;;3.22;2.63;;;;;;;;;;4957687;28;20031;-66
2023/12/14 09:53:37;;;;;;;3.00;2.38;;;;;;;;;;4941370;28;20086;-67
2023/12/14 09:56:04;;;;;;;5.38;2.47;;;;;;;;;;4956818;28;20027;-66
2023/12/14 09:58:34;;;;;;;2.90;2.60;;;;;;;;;;4955097;28;20026;-66
2023/12/14 10:01:04;;;;;;;2.88;2.58;;;;;;;;;;4973191;28;20119;-66
2023/12/14 10:03:29;;;;;;;;;;;;;;;;;;4976323;28;20085;-66
2023/12/14 10:05:56;;;;;;;3.13;2.45;;;;;;;;;;4962710;28;19921;-67
2023/12/14 10:08:22;;;;;;;2.75;2.55;;;;;;;;;;4956811;29;20046;-67
2023/12/14 10:10:51;;;;;;;5.00;3.13;;;;;;;;;;4967646;28;20036;-66
2023/12/14 10:13:17;;;;;;;3.13;2.38;;;;;;;;;;4964439;28;20035;-66
2023/12/14 10:15:48;;;;;;;3.83;2.80;;;;;;;;;;4958551;28;20031;-70
2023/12/14 10:18:36;;;;;;;5.78;3.50;;;;;;;;;;4956615;28;20392;-71
2023/12/14 10:21:01;;;;;;;3.17;2.88;;;;;;;;;;4956108;29;20031;-72
2023/12/14 10:23:30;;;;;;;7.13;4.55;;;;;;;;;;4948242;29;20031;-73
2023/12/14 10:25:57;;;;;;;5.22;3.33;;;;;;;;;;4941893;29;20484;-72
2023/12/14 10:28:24;;;;;;;4.97;3.30;;;;;;;;;;4936665;29;20386;-73
2023/12/14 10:30:49;;;;;;;7.25;3.63;;;;;;;;;;4936665;29;20497;-72
2023/12/14 10:33:16;;;;;;;4.88;3.63;;;;;;;;;;4936727;29;20042;-73
2023/12/14 10:35:43;;;;;;;4.15;3.53;;;;;;;;;;4937028;29;20136;-72
2023/12/14 10:38:11;;;;;;;3.80;3.17;;;;;;;;;;4946202;29;20044;-72
2023/12/14 10:40:40;;;;;;;6.22;3.70;;;;;;;;;;4955272;29;20031;-72
2023/12/14 10:43:06;;;;;;;4.78;3.47;;;;;;;;;;4955449;29;20035;-71
2023/12/14 10:45:33;;;;;;;3.67;3.10;;;;;;;;;;4955898;29;20556;-73
2023/12/14 10:48:00;;;;;;;4.57;3.80;;;;;;;;;;4955667;29;20063;-73
2023/12/14 10:50:30;;;;;;;3.83;3.40;;;;;;;;;;4955939;29;20034;-71
2023/12/14 10:52:58;;;;;;;3.83;3.42;;;;;;;;;;4952460;29;20026;-74
2023/12/14 10:55:30;;;;;;;3.75;3.28;;;;;;;;;;4922393;29;20046;-72
2023/12/14 10:57:57;;;;;;;4.57;3.25;;;;;;;;;;4936280;29;20086;-74
2023/12/14 11:00:23;;;;;;;4.78;3.75;;;;;;;;;;4944983;29;20481;-72
2023/12/14 11:02:49;;;;;;;6.82;3.50;;;;;;;;;;4944652;29;20031;-72
2023/12/14 11:05:17;;;;;;;4.50;3.70;;;;;;;;;;4955872;29;20035;-71
2023/12/14 11:07:49;;;;;;;4.85;3.60;;;;;;;;;;4954464;29;20031;-74
2023/12/14 11:10:19;;;;;;;5.93;3.28;;;;;;;;;;4953487;28;20035;-71
2023/12/14 11:12:52;;;;;;;;;;;;;;;;;;4956999;29;20090;-72
2023/12/14 11:15:19;;;;;;;4.60;3.10;;;;;;;;;;4955650;29;19918;-73
2023/12/14 11:18:25;;;;;;;4.13;3.35;;;;;;;;;;4955233;29;20381;-72
2023/12/14 11:20:54;;;;;;;3.85;3.45;;;;;;;;;;4954554;29;20503;-71
2023/12/14 11:23:31;;;;;;;4.05;3.33;;;;;;;;;;4955106;29;20035;-74
2023/12/14 11:25:59;;;;;;;3.50;3.20;;;;;;;;;;4955343;29;20663;-71
2023/12/14 11:28:26;;;;;;;3.58;3.28;;;;;;;;;;4954892;29;20050;-71
2023/12/14 11:30:52;;;;;;;4.07;3.20;;;;;;;;;;4954870;29;20030;-71
2023/12/14 11:33:17;;;;;;;3.42;3.10;;;;;;;;;;4955173;29;20043;-71
2023/12/14 11:35:43;;;;;;;4.18;3.00;;;;;;;;;;4955049;29;20055;-71
2023/12/14 11:38:13;;;;;;;3.55;3.20;;;;;;;;;;4956466;29;20067;-72
2023/12/14 11:40:40;;;;;;;3.20;2.90;;;;;;;;;;4954783;29;20118;-71
2023/12/14 11:43:09;;;;;;;4.20;3.20;;;;;;;;;;4954601;29;20031;-71
2023/12/14 11:45:36;;;;;;;3.80;3.42;;;;;;;;;;4955447;29;20114;-71
2023/12/14 11:48:07;;;;;;;3.97;3.58;;;;;;;;;;4954691;29;20019;-70
2023/12/14 11:50:34;;;;;;;3.58;3.20;;;;;;;;;;4954725;29;20031;-70
2023/12/14 11:53:03;;;;;;;3.40;3.10;;;;;;;;;;4954938;29;20031;-71
2023/12/14 11:55:32;;;;;;;4.78;3.08;;;;;;;;;;4954615;29;20074;-72
2023/12/14 11:57:58;;;;;;;4.70;3.50;;;;;;;;;;4938018;29;20032;-70
2023/12/14 12:00:28;;;;;;;3.35;3.00;;;;;;;;;;4954358;29;20023;-71
2023/12/14 12:03:35;;;;;;;3.53;3.13;;;;;;;;;;4954653;29;20035;-71
2023/12/14 12:06:00;;;;;;;3.53;3.22;;;;;;;;;;4894984;29;20044;-72
2023/12/14 12:08:26;;;;;;;3.72;3.28;;;;;;;;;;4895921;29;20036;-70
2023/12/14 12:10:51;;;;;;;3.50;3.20;;;;;;;;;;4923262;29;20043;-71
2023/12/14 12:13:20;;;;;;;3.47;3.15;;;;;;;;;;4954176;29;20034;-71
2023/12/14 12:15:46;;;;;;;4.13;3.50;;;;;;;;;;4954363;29;20195;-71
2023/12/14 12:18:14;;;;;;;3.97;3.22;;;;;;;;;;4954126;29;20484;-71
2023/12/14 12:20:40;;;;;;;3.78;3.33;;;;;;;;;;4955284;28;20032;-71
2023/12/14 12:23:06;;;;;;;3.30;3.00;;;;;;;;;;4954715;29;20031;-67
2023/12/14 12:25:32;;;;;;;4.15;3.75;;;;;;;;;;4956222;28;20035;-66
2023/12/14 12:27:59;;;;;;;3.33;3.03;;;;;;;;;;4953712;29;20050;-65
2023/12/14 12:30:25;;;;;;;3.20;2.90;;;;;;;;;;4953650;29;20035;-66
2023/12/14 12:32:51;;;;;;;3.33;2.97;;;;;;;;;;4953740;29;20090;-66
2023/12/14 12:35:20;;;;;;;3.50;3.20;;;;;;;;;;4953781;29;20118;-67
2023/12/14 12:37:46;;;;;;;5.32;3.40;;;;;;;;;;4953978;29;20035;-67
2023/12/14 12:40:12;;;;;;;3.45;3.15;;;;;;;;;;4953710;29;20511;-66
2023/12/14 12:42:38;;;;;;;3.90;3.03;;;;;;;;;;4952026;29;20598;-67
2023/12/14 12:45:05;;;;;;;3.33;3.03;;;;;;;;;;4950465;28;20125;-66
2023/12/14 12:47:31;;;;;;;3.90;3.50;;;;;;;;;;4934428;29;20369;-67
2023/12/14 12:49:57;;;;;;;3.85;3.55;;;;;;;;;;4934683;29;20067;-65
2023/12/14 12:52:22;;;;;;;3.63;3.30;;;;;;;;;;4934436;29;20495;-66
2023/12/14 12:54:48;;;;;;;3.35;2.83;;;;;;;;;;4934205;29;20066;-66
2023/12/14 12:57:13;;;;;;;6.43;3.17;;;;;;;;;;4934262;29;20063;-66
2023/12/14 12:59:39;;;;;;;3.80;3.40;;;;;;;;;;4934226;29;20035;-67
2023/12/14 13:02:05;;;;;;;6.45;3.35;;;;;;;;;;4934476;29;20040;-67
2023/12/14 13:04:31;;;;;;;5.93;3.38;;;;;;;;;;4934112;29;20031;-67
2023/12/14 13:06:57;;;;;;;3.80;3.50;;;;;;;;;;4934144;29;20042;-66
2023/12/14 13:09:23;;;;;;;3.80;3.03;;;;;;;;;;4934083;29;20036;-65
2023/12/14 13:11:50;;;;;;;7.43;3.70;;;;;;;;;;4934005;29;20031;-66
2023/12/14 13:14:15;;;;;;;5.97;3.63;;;;;;;;;;4933844;29;20525;-66
2023/12/14 13:16:42;;;;;;;4.65;3.17;;;;;;;;;;4933929;29;20031;-66
2023/12/14 13:19:08;;;;;;;4.10;3.55;;;;;;;;;;4934088;29;20042;-66
2023/12/14 13:21:34;;;;;;;4.30;3.58;;;;;;;;;;4933821;29;20039;-67
2023/12/14 13:23:59;;;;;;;5.07;3.40;;;;;;;;;;4936753;28;20102;-64
2023/12/14 13:26:25;;;;;;;4.45;3.63;;;;;;;;;;4952708;29;20139;-64
2023/12/14 13:28:54;;;;;;;5.72;3.50;;;;;;;;;;4953114;29;20031;-63
2023/12/14 13:31:20;;;;;;;3.50;3.20;;;;;;;;;;4952969;29;20484;-64
2023/12/14 13:33:47;;;;;;;4.75;3.53;;;;;;;;;;4952817;29;20050;-61
2023/12/14 13:36:13;;;;;;;4.93;3.53;;;;;;;;;;4952463;29;20038;-72
2023/12/14 13:38:38;;;;;;;4.13;3.30;;;;;;;;;;4952860;29;20117;-71
2023/12/14 13:41:04;;;;;;;5.88;3.25;;;;;;;;;;4952905;29;20174;-71
2023/12/14 13:43:31;;;;;;;12.80;3.60;;;;;;;;;;4952789;29;20031;-71
2023/12/14 13:45:59;;;;;;;4.43;3.05;;;;;;;;;;4952943;29;20041;-72
2023/12/14 13:48:26;;;;;;;3.90;3.40;;;;;;;;;;4958816;28;20034;-72
2023/12/14 13:50:53;;;;;;;6.18;3.25;;;;;;;;;;4960553;28;20031;-72
2023/12/14 13:53:20;;;;;;;4.63;3.42;;;;;;;;;;4959332;28;20642;-74
2023/12/14 13:55:46;;;;;;;9.88;3.50;;;;;;;;;;4960005;28;20093;-73
2023/12/14 13:58:12;;;;;;;5.72;3.33;;;;;;;;;;4960669;28;20543;-73
2023/12/14 14:00:37;;;;;;;7.90;3.67;;;;;;;;;;4959313;28;20031;-73
2023/12/14 14:03:04;;;;;;;10.18;3.40;;;;;;;;;;4960477;28;20551;-72
2023/12/14 14:05:30;;;;;;;11.07;4.00;;;;;;;;;;4959116;28;20093;-71
2023/12/14 14:07:56;;;;;;;4.72;3.40;;;;;;;;;;4960342;28;20503;-71
2023/12/14 14:10:22;;;;;;;5.90;3.95;;;;;;;;;;4971801;28;20035;-72
2023/12/14 14:12:48;;;;;;;3.83;3.28;;;;;;;;;;4967566;28;20185;-72
2023/12/14 14:15:14;;;;;;;6.30;3.65;;;;;;;;;;4960765;28;20047;-74
2023/12/14 14:17:39;;;;;;;4.80;3.25;;;;;;;;;;4959072;28;20481;-74
2023/12/14 14:20:06;;;;;;;4.38;3.22;;;;;;;;;;4957073;28;20059;-68
2023/12/14 14:22:32;;;;;;;9.90;3.50;;;;;;;;;;4952355;29;20028;-69
2023/12/14 14:24:58;;;;;;;4.75;3.40;;;;;;;;;;4952292;29;20032;-68
2023/12/14 14:27:24;;;;;;;6.20;3.20;;;;;;;;;;4952233;29;20039;-70
2023/12/14 14:29:53;;;;;;;7.35;3.20;;;;;;;;;;4952211;29;20027;-69
2023/12/14 14:32:18;;;;;;;3.97;3.28;;;;;;;;;;4952485;29;20061;-71
2023/12/14 14:34:44;;;;;;;6.43;3.20;;;;;;;;;;4952179;29;20488;-70
2023/12/14 14:37:09;;;;;;;8.60;3.03;;;;;;;;;;4952099;29;20074;-71
2023/12/14 14:39:35;;;;;;;3.97;2.95;;;;;;;;;;4952257;29;20071;-70